sensor_id;sensor_type;location;lat;lon;timestamp;temperature;humidity
11454;DHT22;5783;55.174;61.310;2023-05-13T00:01:02;21.10;42.30
11454;DHT22;5783;55.174;61.310;2023-05-13T00:03:32;21.10;42.30
11454;DHT22;5783;55.174;61.310;2023-05-13T00:06:02;21.10;42.30
11454;DHT22;5783;55.174;61.310;2023-05-13T00:08:31;21.10;42.50
11454;DHT22;5783;55.174;61.310;2023-05-13T00:11:00;21.10;42.60
11454;DHT22;5783;55.174;61.310;2023-05-13T00:13:29;21.10;42.60
11454;DHT22;5783;55.174;61.310;2023-05-13T00:15:58;21.10;42.50
11454;DHT22;5783;55.174;61.310;2023-05-13T00:18:28;21.10;42.40
11454;DHT22;5783;55.174;61.310;2023-05-13T00:20:57;21.10;42.40
11454;DHT22;5783;55.174;61.310;2023-05-13T00:23:26;21.10;42.50
11454;DHT22;5783;55.174;61.310;2023-05-13T00:25:55;21.10;42.30
11454;DHT22;5783;55.174;61.310;2023-05-13T00:28:24;21.10;42.30
11454;DHT22;5783;55.174;61.310;2023-05-13T00:30:53;21.10;42.30
11454;DHT22;5783;55.174;61.310;2023-05-13T00:33:23;21.10;42.50
11454;DHT22;5783;55.174;61.310;2023-05-13T00:35:52;21.00;42.50
11454;DHT22;5783;55.174;61.310;2023-05-13T00:38:21;21.00;42.40
11454;DHT22;5783;55.174;61.310;2023-05-13T00:40:50;21.00;42.40
11454;DHT22;5783;55.174;61.310;2023-05-13T00:43:19;21.00;42.30
11454;DHT22;5783;55.174;61.310;2023-05-13T00:45:49;21.00;42.20
11454;DHT22;5783;55.174;61.310;2023-05-13T00:48:18;21.00;42.30
11454;DHT22;5783;55.174;61.310;2023-05-13T00:50:47;21.00;42.30
11454;DHT22;5783;55.174;61.310;2023-05-13T00:53:17;21.00;42.20
11454;DHT22;5783;55.174;61.310;2023-05-13T00:55:46;21.00;42.30
11454;DHT22;5783;55.174;61.310;2023-05-13T00:58:15;21.00;42.30
11454;DHT22;5783;55.174;61.310;2023-05-13T01:03:59;21.00;42.00
11454;DHT22;5783;55.174;61.310;2023-05-13T01:12:44;20.90;42.40
11454;DHT22;5783;55.174;61.310;2023-05-13T01:15:16;20.90;42.40
11454;DHT22;5783;55.174;61.310;2023-05-13T01:20:39;20.90;42.40
11454;DHT22;5783;55.174;61.310;2023-05-13T01:23:10;20.90;42.40
11454;DHT22;5783;55.174;61.310;2023-05-13T01:25:40;20.90;42.50
11454;DHT22;5783;55.174;61.310;2023-05-13T01:28:11;20.90;42.40
11454;DHT22;5783;55.174;61.310;2023-05-13T01:30:40;20.90;42.30
11454;DHT22;5783;55.174;61.310;2023-05-13T01:33:10;20.90;42.40
11454;DHT22;5783;55.174;61.310;2023-05-13T01:35:39;20.90;42.50
11454;DHT22;5783;55.174;61.310;2023-05-13T01:38:08;20.90;42.50
11454;DHT22;5783;55.174;61.310;2023-05-13T01:40:38;20.90;42.50
11454;DHT22;5783;55.174;61.310;2023-05-13T01:43:08;20.90;42.50
11454;DHT22;5783;55.174;61.310;2023-05-13T01:45:37;20.90;42.30
11454;DHT22;5783;55.174;61.310;2023-05-13T01:48:06;20.90;42.30
11454;DHT22;5783;55.174;61.310;2023-05-13T01:50:35;20.90;42.20
11454;DHT22;5783;55.174;61.310;2023-05-13T01:53:04;20.90;42.10
11454;DHT22;5783;55.174;61.310;2023-05-13T01:55:33;20.90;42.20
11454;DHT22;5783;55.174;61.310;2023-05-13T01:58:02;20.90;42.20
11454;DHT22;5783;55.174;61.310;2023-05-13T02:00:32;20.90;42.10
11454;DHT22;5783;55.174;61.310;2023-05-13T02:03:01;20.90;42.40
11454;DHT22;5783;55.174;61.310;2023-05-13T02:05:30;20.90;42.30
11454;DHT22;5783;55.174;61.310;2023-05-13T02:07:59;20.90;42.40
11454;DHT22;5783;55.174;61.310;2023-05-13T02:10:28;20.90;42.30
11454;DHT22;5783;55.174;61.310;2023-05-13T02:12:57;20.90;42.20
11454;DHT22;5783;55.174;61.310;2023-05-13T02:15:26;20.90;42.20
11454;DHT22;5783;55.174;61.310;2023-05-13T02:17:56;20.80;42.20
11454;DHT22;5783;55.174;61.310;2023-05-13T02:20:27;20.90;42.30
11454;DHT22;5783;55.174;61.310;2023-05-13T02:22:56;20.80;42.30
11454;DHT22;5783;55.174;61.310;2023-05-13T02:25:25;20.90;42.50
11454;DHT22;5783;55.174;61.310;2023-05-13T02:27:54;20.90;42.50
11454;DHT22;5783;55.174;61.310;2023-05-13T02:30:23;20.90;42.60
11454;DHT22;5783;55.174;61.310;2023-05-13T02:33:12;20.90;42.50
11454;DHT22;5783;55.174;61.310;2023-05-13T02:35:41;20.80;42.40
11454;DHT22;5783;55.174;61.310;2023-05-13T02:38:11;20.80;42.20
11454;DHT22;5783;55.174;61.310;2023-05-13T02:40:40;20.80;42.50
11454;DHT22;5783;55.174;61.310;2023-05-13T02:43:09;20.80;42.40
11454;DHT22;5783;55.174;61.310;2023-05-13T02:45:40;20.80;42.40
11454;DHT22;5783;55.174;61.310;2023-05-13T02:48:09;20.80;42.40
11454;DHT22;5783;55.174;61.310;2023-05-13T02:50:39;20.80;42.20
11454;DHT22;5783;55.174;61.310;2023-05-13T02:53:08;20.80;42.10
11454;DHT22;5783;55.174;61.310;2023-05-13T02:55:37;20.80;42.10
11454;DHT22;5783;55.174;61.310;2023-05-13T02:58:07;20.80;42.00
11454;DHT22;5783;55.174;61.310;2023-05-13T03:00:37;20.80;42.00
11454;DHT22;5783;55.174;61.310;2023-05-13T03:03:06;20.80;42.10
11454;DHT22;5783;55.174;61.310;2023-05-13T03:05:35;20.80;42.30
11454;DHT22;5783;55.174;61.310;2023-05-13T03:08:04;20.80;42.30
11454;DHT22;5783;55.174;61.310;2023-05-13T03:10:34;20.80;42.30
11454;DHT22;5783;55.174;61.310;2023-05-13T03:13:03;20.80;42.60
11454;DHT22;5783;55.174;61.310;2023-05-13T03:15:32;20.80;42.40
11454;DHT22;5783;55.174;61.310;2023-05-13T03:18:01;20.80;42.50
11454;DHT22;5783;55.174;61.310;2023-05-13T03:20:30;20.80;42.50
11454;DHT22;5783;55.174;61.310;2023-05-13T03:23:00;20.80;42.50
11454;DHT22;5783;55.174;61.310;2023-05-13T03:25:29;20.80;42.60
11454;DHT22;5783;55.174;61.310;2023-05-13T03:27:58;20.80;42.60
11454;DHT22;5783;55.174;61.310;2023-05-13T03:30:27;20.80;42.60
11454;DHT22;5783;55.174;61.310;2023-05-13T03:32:56;20.90;42.60
11454;DHT22;5783;55.174;61.310;2023-05-13T03:35:26;20.90;42.60
11454;DHT22;5783;55.174;61.310;2023-05-13T03:37:55;20.80;42.60
11454;DHT22;5783;55.174;61.310;2023-05-13T03:40:24;20.90;42.60
11454;DHT22;5783;55.174;61.310;2023-05-13T03:42:53;20.80;42.50
11454;DHT22;5783;55.174;61.310;2023-05-13T03:45:22;20.80;42.60
11454;DHT22;5783;55.174;61.310;2023-05-13T03:47:51;20.80;42.30
11454;DHT22;5783;55.174;61.310;2023-05-13T03:50:20;20.80;42.20
11454;DHT22;5783;55.174;61.310;2023-05-13T03:52:50;20.80;42.30
11454;DHT22;5783;55.174;61.310;2023-05-13T03:55:19;20.80;42.30
11454;DHT22;5783;55.174;61.310;2023-05-13T03:57:49;20.80;42.30
11454;DHT22;5783;55.174;61.310;2023-05-13T04:00:18;20.80;42.30
11454;DHT22;5783;55.174;61.310;2023-05-13T04:02:47;20.80;42.50
11454;DHT22;5783;55.174;61.310;2023-05-13T04:05:17;20.80;42.20
11454;DHT22;5783;55.174;61.310;2023-05-13T04:07:47;20.80;42.20
11454;DHT22;5783;55.174;61.310;2023-05-13T04:10:16;20.80;42.20
11454;DHT22;5783;55.174;61.310;2023-05-13T04:12:45;20.80;42.10
11454;DHT22;5783;55.174;61.310;2023-05-13T04:15:14;20.80;42.20
11454;DHT22;5783;55.174;61.310;2023-05-13T04:17:44;20.80;42.30
11454;DHT22;5783;55.174;61.310;2023-05-13T04:20:13;20.80;42.10
11454;DHT22;5783;55.174;61.310;2023-05-13T04:22:42;20.80;42.10
11454;DHT22;5783;55.174;61.310;2023-05-13T04:25:11;20.80;42.10
11454;DHT22;5783;55.174;61.310;2023-05-13T04:27:40;20.80;42.10
11454;DHT22;5783;55.174;61.310;2023-05-13T04:30:10;20.90;42.00
11454;DHT22;5783;55.174;61.310;2023-05-13T04:32:39;20.90;42.00
11454;DHT22;5783;55.174;61.310;2023-05-13T04:35:08;20.80;41.90
11454;DHT22;5783;55.174;61.310;2023-05-13T04:38:10;20.90;42.00
11454;DHT22;5783;55.174;61.310;2023-05-13T04:40:09;20.90;42.20
11454;DHT22;5783;55.174;61.310;2023-05-13T04:42:38;20.90;42.20
11454;DHT22;5783;55.174;61.310;2023-05-13T04:45:08;21.00;42.10
11454;DHT22;5783;55.174;61.310;2023-05-13T04:47:37;21.00;41.90
11454;DHT22;5783;55.174;61.310;2023-05-13T04:50:06;21.00;41.60
11454;DHT22;5783;55.174;61.310;2023-05-13T04:52:36;21.00;41.70
11454;DHT22;5783;55.174;61.310;2023-05-13T04:55:06;21.00;41.80
11454;DHT22;5783;55.174;61.310;2023-05-13T04:57:35;21.00;41.90
11454;DHT22;5783;55.174;61.310;2023-05-13T05:00:05;21.00;42.00
11454;DHT22;5783;55.174;61.310;2023-05-13T05:02:35;21.00;41.90
11454;DHT22;5783;55.174;61.310;2023-05-13T05:05:05;21.00;41.90
11454;DHT22;5783;55.174;61.310;2023-05-13T05:07:34;21.00;41.80
11454;DHT22;5783;55.174;61.310;2023-05-13T05:10:06;21.00;41.80
11454;DHT22;5783;55.174;61.310;2023-05-13T05:12:36;21.00;41.00
11454;DHT22;5783;55.174;61.310;2023-05-13T05:15:05;21.10;40.70
11454;DHT22;5783;55.174;61.310;2023-05-13T05:17:54;21.20;40.30
11454;DHT22;5783;55.174;61.310;2023-05-13T05:20:24;21.20;39.30
11454;DHT22;5783;55.174;61.310;2023-05-13T05:22:53;21.20;39.00
11454;DHT22;5783;55.174;61.310;2023-05-13T05:25:22;21.20;39.20
11454;DHT22;5783;55.174;61.310;2023-05-13T05:27:51;21.20;39.10
11454;DHT22;5783;55.174;61.310;2023-05-13T05:30:20;21.10;38.90
11454;DHT22;5783;55.174;61.310;2023-05-13T05:32:49;21.10;38.70
11454;DHT22;5783;55.174;61.310;2023-05-13T05:35:18;21.10;38.60
11454;DHT22;5783;55.174;61.310;2023-05-13T05:37:48;21.10;38.40
11454;DHT22;5783;55.174;61.310;2023-05-13T05:40:18;21.00;38.40
11454;DHT22;5783;55.174;61.310;2023-05-13T05:42:48;21.00;38.40
11454;DHT22;5783;55.174;61.310;2023-05-13T05:45:17;21.00;38.70
11454;DHT22;5783;55.174;61.310;2023-05-13T05:47:46;21.00;38.70
11454;DHT22;5783;55.174;61.310;2023-05-13T05:50:15;21.00;38.70
11454;DHT22;5783;55.174;61.310;2023-05-13T05:52:44;21.00;39.10
11454;DHT22;5783;55.174;61.310;2023-05-13T05:55:14;21.00;38.60
11454;DHT22;5783;55.174;61.310;2023-05-13T05:57:43;20.90;38.30
11454;DHT22;5783;55.174;61.310;2023-05-13T06:00:12;20.90;38.40
11454;DHT22;5783;55.174;61.310;2023-05-13T06:02:42;20.80;38.40
11454;DHT22;5783;55.174;61.310;2023-05-13T06:05:11;20.80;38.90
11454;DHT22;5783;55.174;61.310;2023-05-13T06:07:41;20.80;39.00
11454;DHT22;5783;55.174;61.310;2023-05-13T06:10:10;20.80;38.90
11454;DHT22;5783;55.174;61.310;2023-05-13T06:12:39;20.80;39.40
11454;DHT22;5783;55.174;61.310;2023-05-13T06:15:09;20.80;39.30
11454;DHT22;5783;55.174;61.310;2023-05-13T06:17:38;20.80;39.10
11454;DHT22;5783;55.174;61.310;2023-05-13T06:20:08;20.80;39.10
11454;DHT22;5783;55.174;61.310;2023-05-13T06:22:38;20.70;39.00
11454;DHT22;5783;55.174;61.310;2023-05-13T06:25:07;20.80;39.60
11454;DHT22;5783;55.174;61.310;2023-05-13T06:27:36;20.80;39.50
11454;DHT22;5783;55.174;61.310;2023-05-13T06:30:06;20.70;39.80
11454;DHT22;5783;55.174;61.310;2023-05-13T06:32:36;20.70;39.90
11454;DHT22;5783;55.174;61.310;2023-05-13T06:35:05;20.70;40.00
11454;DHT22;5783;55.174;61.310;2023-05-13T06:37:34;20.70;39.80
11454;DHT22;5783;55.174;61.310;2023-05-13T06:40:04;20.60;40.10
11454;DHT22;5783;55.174;61.310;2023-05-13T06:42:33;20.60;40.10
11454;DHT22;5783;55.174;61.310;2023-05-13T06:45:06;20.60;40.50
11454;DHT22;5783;55.174;61.310;2023-05-13T06:47:35;20.60;40.70
11454;DHT22;5783;55.174;61.310;2023-05-13T06:50:04;20.60;40.50
11454;DHT22;5783;55.174;61.310;2023-05-13T06:52:33;20.60;40.30
11454;DHT22;5783;55.174;61.310;2023-05-13T06:55:03;20.70;40.40
11454;DHT22;5783;55.174;61.310;2023-05-13T06:57:33;20.70;40.40
11454;DHT22;5783;55.174;61.310;2023-05-13T07:00:02;20.70;40.10
11454;DHT22;5783;55.174;61.310;2023-05-13T07:02:33;20.70;39.70
11454;DHT22;5783;55.174;61.310;2023-05-13T07:05:02;20.70;39.40
11454;DHT22;5783;55.174;61.310;2023-05-13T07:07:31;20.70;39.90
11454;DHT22;5783;55.174;61.310;2023-05-13T07:10:01;20.70;39.60
11454;DHT22;5783;55.174;61.310;2023-05-13T07:12:32;20.70;39.60
11454;DHT22;5783;55.174;61.310;2023-05-13T07:15:01;20.70;39.80
11454;DHT22;5783;55.174;61.310;2023-05-13T07:17:32;20.70;39.90
11454;DHT22;5783;55.174;61.310;2023-05-13T07:20:01;20.70;39.60
11454;DHT22;5783;55.174;61.310;2023-05-13T07:22:31;20.70;39.30
11454;DHT22;5783;55.174;61.310;2023-05-13T07:25:01;20.70;39.60
11454;DHT22;5783;55.174;61.310;2023-05-13T07:27:32;20.70;39.80
11454;DHT22;5783;55.174;61.310;2023-05-13T07:30:01;20.70;39.80
11454;DHT22;5783;55.174;61.310;2023-05-13T07:32:32;20.70;39.70
11454;DHT22;5783;55.174;61.310;2023-05-13T07:35:03;20.70;39.70
11454;DHT22;5783;55.174;61.310;2023-05-13T07:37:32;20.70;39.90
11454;DHT22;5783;55.174;61.310;2023-05-13T07:40:37;20.70;40.10
11454;DHT22;5783;55.174;61.310;2023-05-13T07:42:35;20.70;40.10
11454;DHT22;5783;55.174;61.310;2023-05-13T07:45:04;20.70;40.10
11454;DHT22;5783;55.174;61.310;2023-05-13T07:47:34;20.60;40.10
11454;DHT22;5783;55.174;61.310;2023-05-13T07:50:03;20.60;40.10
11454;DHT22;5783;55.174;61.310;2023-05-13T07:52:33;20.60;40.10
11454;DHT22;5783;55.174;61.310;2023-05-13T07:55:02;20.50;40.20
11454;DHT22;5783;55.174;61.310;2023-05-13T07:57:32;20.50;40.20
11454;DHT22;5783;55.174;61.310;2023-05-13T08:00:01;20.50;40.30
11454;DHT22;5783;55.174;61.310;2023-05-13T08:02:32;20.50;40.50
11454;DHT22;5783;55.174;61.310;2023-05-13T08:05:01;20.50;40.20
11454;DHT22;5783;55.174;61.310;2023-05-13T08:07:31;20.50;40.20
11454;DHT22;5783;55.174;61.310;2023-05-13T08:10:00;20.50;40.60
11454;DHT22;5783;55.174;61.310;2023-05-13T08:12:32;20.50;40.60
11454;DHT22;5783;55.174;61.310;2023-05-13T08:15:02;20.50;40.50
11454;DHT22;5783;55.174;61.310;2023-05-13T08:17:34;20.50;40.50
11454;DHT22;5783;55.174;61.310;2023-05-13T08:20:03;20.50;40.50
11454;DHT22;5783;55.174;61.310;2023-05-13T08:22:33;20.60;40.50
11454;DHT22;5783;55.174;61.310;2023-05-13T08:25:03;20.60;40.50
11454;DHT22;5783;55.174;61.310;2023-05-13T08:27:34;20.60;40.50
11454;DHT22;5783;55.174;61.310;2023-05-13T08:30:04;20.60;40.50
11454;DHT22;5783;55.174;61.310;2023-05-13T08:32:33;20.60;40.90
11454;DHT22;5783;55.174;61.310;2023-05-13T08:35:03;20.50;40.80
11454;DHT22;5783;55.174;61.310;2023-05-13T08:37:32;20.60;41.00
11454;DHT22;5783;55.174;61.310;2023-05-13T08:40:01;20.50;41.00
11454;DHT22;5783;55.174;61.310;2023-05-13T08:42:32;20.40;41.50
11454;DHT22;5783;55.174;61.310;2023-05-13T08:45:03;20.40;41.40
11454;DHT22;5783;55.174;61.310;2023-05-13T08:47:55;20.40;41.40
11454;DHT22;5783;55.174;61.310;2023-05-13T08:50:46;20.40;41.60
11454;DHT22;5783;55.174;61.310;2023-05-13T08:53:16;20.30;41.40
11454;DHT22;5783;55.174;61.310;2023-05-13T08:55:46;20.20;41.50
11454;DHT22;5783;55.174;61.310;2023-05-13T08:58:16;20.30;41.80
11454;DHT22;5783;55.174;61.310;2023-05-13T09:00:45;20.20;41.60
11454;DHT22;5783;55.174;61.310;2023-05-13T09:03:16;20.20;41.80
11454;DHT22;5783;55.174;61.310;2023-05-13T09:05:47;20.20;41.90
11454;DHT22;5783;55.174;61.310;2023-05-13T09:08:16;20.20;42.00
11454;DHT22;5783;55.174;61.310;2023-05-13T09:10:46;20.20;41.90
11454;DHT22;5783;55.174;61.310;2023-05-13T09:13:17;20.10;41.80
11454;DHT22;5783;55.174;61.310;2023-05-13T09:15:46;20.20;42.00
11454;DHT22;5783;55.174;61.310;2023-05-13T09:18:15;20.20;42.20
11454;DHT22;5783;55.174;61.310;2023-05-13T09:20:44;20.20;42.20
11454;DHT22;5783;55.174;61.310;2023-05-13T09:23:14;20.20;42.20
11454;DHT22;5783;55.174;61.310;2023-05-13T09:25:43;20.20;42.40
11454;DHT22;5783;55.174;61.310;2023-05-13T09:28:14;20.20;42.80
11454;DHT22;5783;55.174;61.310;2023-05-13T09:30:43;20.20;42.50
11454;DHT22;5783;55.174;61.310;2023-05-13T09:33:17;20.10;42.50
11454;DHT22;5783;55.174;61.310;2023-05-13T09:36:06;20.20;42.70
11454;DHT22;5783;55.174;61.310;2023-05-13T09:38:35;20.20;42.40
11454;DHT22;5783;55.174;61.310;2023-05-13T09:41:05;20.30;42.60
11454;DHT22;5783;55.174;61.310;2023-05-13T09:43:34;20.40;42.50
11454;DHT22;5783;55.174;61.310;2023-05-13T09:46:04;20.50;42.20
11454;DHT22;5783;55.174;61.310;2023-05-13T09:48:34;20.60;42.10
11454;DHT22;5783;55.174;61.310;2023-05-13T09:51:04;20.60;42.30
11454;DHT22;5783;55.174;61.310;2023-05-13T09:53:33;20.70;42.00
11454;DHT22;5783;55.174;61.310;2023-05-13T09:56:02;20.70;41.90
11454;DHT22;5783;55.174;61.310;2023-05-13T09:58:32;20.80;41.80
11454;DHT22;5783;55.174;61.310;2023-05-13T10:01:02;20.80;41.70
11454;DHT22;5783;55.174;61.310;2023-05-13T10:03:32;20.90;41.80
11454;DHT22;5783;55.174;61.310;2023-05-13T10:06:02;20.90;41.90
11454;DHT22;5783;55.174;61.310;2023-05-13T10:08:33;21.00;41.80
11454;DHT22;5783;55.174;61.310;2023-05-13T10:11:03;21.00;41.80
11454;DHT22;5783;55.174;61.310;2023-05-13T10:13:33;21.00;41.60
11454;DHT22;5783;55.174;61.310;2023-05-13T10:16:04;21.10;41.70
11454;DHT22;5783;55.174;61.310;2023-05-13T10:18:35;21.10;41.70
11454;DHT22;5783;55.174;61.310;2023-05-13T10:21:05;21.10;41.60
11454;DHT22;5783;55.174;61.310;2023-05-13T10:23:35;21.10;41.70
11454;DHT22;5783;55.174;61.310;2023-05-13T10:26:05;21.10;41.70
11454;DHT22;5783;55.174;61.310;2023-05-13T10:28:35;21.10;41.60
11454;DHT22;5783;55.174;61.310;2023-05-13T10:31:04;21.10;41.50
11454;DHT22;5783;55.174;61.310;2023-05-13T10:33:33;21.20;41.70
11454;DHT22;5783;55.174;61.310;2023-05-13T10:39:37;21.20;41.60
11454;DHT22;5783;55.174;61.310;2023-05-13T10:45:10;21.10;41.90
11454;DHT22;5783;55.174;61.310;2023-05-13T10:47:39;21.00;42.00
11454;DHT22;5783;55.174;61.310;2023-05-13T10:50:28;21.00;42.50
11454;DHT22;5783;55.174;61.310;2023-05-13T10:52:58;21.00;42.40
11454;DHT22;5783;55.174;61.310;2023-05-13T10:55:29;21.00;42.50
11454;DHT22;5783;55.174;61.310;2023-05-13T10:58:17;21.00;43.10
11454;DHT22;5783;55.174;61.310;2023-05-13T11:00:48;21.10;42.60
11454;DHT22;5783;55.174;61.310;2023-05-13T11:08:58;21.10;42.30
11454;DHT22;5783;55.174;61.310;2023-05-13T11:11:47;21.10;42.30
11454;DHT22;5783;55.174;61.310;2023-05-13T11:14:18;21.20;42.30
11454;DHT22;5783;55.174;61.310;2023-05-13T11:17:08;21.20;42.20
11454;DHT22;5783;55.174;61.310;2023-05-13T11:22:29;21.20;42.30
11454;DHT22;5783;55.174;61.310;2023-05-13T11:25:18;21.30;42.30
11454;DHT22;5783;55.174;61.310;2023-05-13T11:27:48;21.30;42.20
11454;DHT22;5783;55.174;61.310;2023-05-13T11:30:39;21.30;42.30
11454;DHT22;5783;55.174;61.310;2023-05-13T11:33:08;21.30;42.40
11454;DHT22;5783;55.174;61.310;2023-05-13T11:35:38;21.30;42.20
11454;DHT22;5783;55.174;61.310;2023-05-13T11:38:10;21.20;42.30
11454;DHT22;5783;55.174;61.310;2023-05-13T11:40:42;21.10;42.50
11454;DHT22;5783;55.174;61.310;2023-05-13T11:43:17;21.00;42.80
11454;DHT22;5783;55.174;61.310;2023-05-13T11:45:45;21.00;43.10
11454;DHT22;5783;55.174;61.310;2023-05-13T11:48:34;21.00;43.20
11454;DHT22;5783;55.174;61.310;2023-05-13T11:51:03;21.00;43.20
11454;DHT22;5783;55.174;61.310;2023-05-13T11:53:33;20.90;43.10
11454;DHT22;5783;55.174;61.310;2023-05-13T11:56:25;20.90;43.40
11454;DHT22;5783;55.174;61.310;2023-05-13T11:58:54;20.90;43.50
11454;DHT22;5783;55.174;61.310;2023-05-13T12:01:24;20.80;43.40
11454;DHT22;5783;55.174;61.310;2023-05-13T12:06:44;20.80;43.60
11454;DHT22;5783;55.174;61.310;2023-05-13T12:09:13;20.80;43.70
11454;DHT22;5783;55.174;61.310;2023-05-13T12:11:42;20.80;44.00
11454;DHT22;5783;55.174;61.310;2023-05-13T12:14:12;20.80;44.10
11454;DHT22;5783;55.174;61.310;2023-05-13T12:16:41;20.80;43.80
11454;DHT22;5783;55.174;61.310;2023-05-13T12:19:10;20.80;43.80
11454;DHT22;5783;55.174;61.310;2023-05-13T12:21:39;20.80;43.80
11454;DHT22;5783;55.174;61.310;2023-05-13T12:24:31;20.90;43.90
11454;DHT22;5783;55.174;61.310;2023-05-13T12:27:18;20.90;43.70
11454;DHT22;5783;55.174;61.310;2023-05-13T12:29:48;20.90;43.50
11454;DHT22;5783;55.174;61.310;2023-05-13T12:32:19;21.00;43.50
11454;DHT22;5783;55.174;61.310;2023-05-13T12:34:50;21.00;43.30
11454;DHT22;5783;55.174;61.310;2023-05-13T12:37:23;21.00;43.30
11454;DHT22;5783;55.174;61.310;2023-05-13T12:40:07;21.00;43.10
11454;DHT22;5783;55.174;61.310;2023-05-13T12:42:23;21.00;43.10
11454;DHT22;5783;55.174;61.310;2023-05-13T12:44:53;21.00;43.00
11454;DHT22;5783;55.174;61.310;2023-05-13T12:47:23;21.00;42.90
11454;DHT22;5783;55.174;61.310;2023-05-13T12:49:53;21.00;43.20
11454;DHT22;5783;55.174;61.310;2023-05-13T12:52:24;21.10;43.20
11454;DHT22;5783;55.174;61.310;2023-05-13T12:54:53;21.10;43.20
11454;DHT22;5783;55.174;61.310;2023-05-13T12:57:22;21.20;43.20
11454;DHT22;5783;55.174;61.310;2023-05-13T12:59:51;21.30;42.90
11454;DHT22;5783;55.174;61.310;2023-05-13T13:02:20;21.30;42.50
11454;DHT22;5783;55.174;61.310;2023-05-13T13:04:49;21.40;42.00
11454;DHT22;5783;55.174;61.310;2023-05-13T13:07:19;21.50;41.90
11454;DHT22;5783;55.174;61.310;2023-05-13T13:09:48;21.50;41.80
11454;DHT22;5783;55.174;61.310;2023-05-13T13:12:18;21.50;41.60
11454;DHT22;5783;55.174;61.310;2023-05-13T13:14:47;21.50;41.50
11454;DHT22;5783;55.174;61.310;2023-05-13T13:17:17;21.50;41.80
11454;DHT22;5783;55.174;61.310;2023-05-13T13:19:46;21.50;41.70
11454;DHT22;5783;55.174;61.310;2023-05-13T13:22:16;21.50;41.40
11454;DHT22;5783;55.174;61.310;2023-05-13T13:24:45;21.50;41.50
11454;DHT22;5783;55.174;61.310;2023-05-13T13:27:14;21.50;41.70
11454;DHT22;5783;55.174;61.310;2023-05-13T13:29:43;21.50;41.60
11454;DHT22;5783;55.174;61.310;2023-05-13T13:32:13;21.50;41.70
11454;DHT22;5783;55.174;61.310;2023-05-13T13:34:42;21.50;41.80
11454;DHT22;5783;55.174;61.310;2023-05-13T13:37:11;21.50;41.60
11454;DHT22;5783;55.174;61.310;2023-05-13T13:39:40;21.50;41.80
11454;DHT22;5783;55.174;61.310;2023-05-13T13:42:10;21.50;41.80
11454;DHT22;5783;55.174;61.310;2023-05-13T13:44:39;21.50;41.90
11454;DHT22;5783;55.174;61.310;2023-05-13T13:47:08;21.50;42.00
11454;DHT22;5783;55.174;61.310;2023-05-13T13:49:38;21.50;42.00
11454;DHT22;5783;55.174;61.310;2023-05-13T13:52:07;21.50;42.10
11454;DHT22;5783;55.174;61.310;2023-05-13T13:54:36;21.50;42.30
11454;DHT22;5783;55.174;61.310;2023-05-13T13:57:06;21.50;42.30
11454;DHT22;5783;55.174;61.310;2023-05-13T13:59:35;21.40;42.20
11454;DHT22;5783;55.174;61.310;2023-05-13T14:02:04;21.50;42.20
11454;DHT22;5783;55.174;61.310;2023-05-13T14:04:33;21.40;42.20
11454;DHT22;5783;55.174;61.310;2023-05-13T14:07:02;21.40;42.10
11454;DHT22;5783;55.174;61.310;2023-05-13T14:09:32;21.40;42.10
11454;DHT22;5783;55.174;61.310;2023-05-13T14:12:01;21.40;42.10
11454;DHT22;5783;55.174;61.310;2023-05-13T14:14:30;21.40;42.00
11454;DHT22;5783;55.174;61.310;2023-05-13T14:16:59;21.40;41.60
11454;DHT22;5783;55.174;61.310;2023-05-13T14:19:28;21.40;42.10
11454;DHT22;5783;55.174;61.310;2023-05-13T14:21:57;21.30;42.10
11454;DHT22;5783;55.174;61.310;2023-05-13T14:24:26;21.30;42.20
11454;DHT22;5783;55.174;61.310;2023-05-13T14:26:57;21.30;42.20
11454;DHT22;5783;55.174;61.310;2023-05-13T14:29:26;21.30;42.00
11454;DHT22;5783;55.174;61.310;2023-05-13T14:31:55;21.30;41.80
11454;DHT22;5783;55.174;61.310;2023-05-13T14:34:25;21.30;41.60
11454;DHT22;5783;55.174;61.310;2023-05-13T14:36:54;21.30;41.60
11454;DHT22;5783;55.174;61.310;2023-05-13T14:39:23;21.30;41.50
11454;DHT22;5783;55.174;61.310;2023-05-13T14:41:52;21.30;41.80
11454;DHT22;5783;55.174;61.310;2023-05-13T14:44:21;21.30;41.60
11454;DHT22;5783;55.174;61.310;2023-05-13T14:46:51;21.20;41.50
11454;DHT22;5783;55.174;61.310;2023-05-13T14:49:20;21.20;41.40
11454;DHT22;5783;55.174;61.310;2023-05-13T14:51:49;21.20;41.40
11454;DHT22;5783;55.174;61.310;2023-05-13T14:54:18;21.20;41.40
11454;DHT22;5783;55.174;61.310;2023-05-13T14:56:47;21.20;41.40
11454;DHT22;5783;55.174;61.310;2023-05-13T14:59:16;21.20;41.50
11454;DHT22;5783;55.174;61.310;2023-05-13T15:01:46;21.20;41.50
11454;DHT22;5783;55.174;61.310;2023-05-13T15:04:15;21.10;41.60
11454;DHT22;5783;55.174;61.310;2023-05-13T15:06:44;21.20;41.70
11454;DHT22;5783;55.174;61.310;2023-05-13T15:09:13;21.10;41.60
11454;DHT22;5783;55.174;61.310;2023-05-13T15:11:43;21.10;41.50
11454;DHT22;5783;55.174;61.310;2023-05-13T15:14:12;21.10;41.50
11454;DHT22;5783;55.174;61.310;2023-05-13T15:16:43;21.00;41.40
11454;DHT22;5783;55.174;61.310;2023-05-13T15:19:13;21.00;41.50
11454;DHT22;5783;55.174;61.310;2023-05-13T15:21:42;21.00;41.60
11454;DHT22;5783;55.174;61.310;2023-05-13T15:24:11;20.90;41.70
11454;DHT22;5783;55.174;61.310;2023-05-13T15:26:40;20.90;41.80
11454;DHT22;5783;55.174;61.310;2023-05-13T15:29:09;20.90;41.90
11454;DHT22;5783;55.174;61.310;2023-05-13T15:31:38;20.80;41.90
11454;DHT22;5783;55.174;61.310;2023-05-13T15:34:08;20.80;42.00
11454;DHT22;5783;55.174;61.310;2023-05-13T15:36:37;20.80;42.10
11454;DHT22;5783;55.174;61.310;2023-05-13T15:39:06;20.70;42.20
11454;DHT22;5783;55.174;61.310;2023-05-13T15:41:36;20.70;42.20
11454;DHT22;5783;55.174;61.310;2023-05-13T15:44:05;20.70;42.40
11454;DHT22;5783;55.174;61.310;2023-05-13T15:46:35;20.70;42.40
11454;DHT22;5783;55.174;61.310;2023-05-13T15:49:04;20.70;42.40
11454;DHT22;5783;55.174;61.310;2023-05-13T15:51:33;20.70;42.40
11454;DHT22;5783;55.174;61.310;2023-05-13T15:54:03;20.70;42.50
11454;DHT22;5783;55.174;61.310;2023-05-13T15:56:32;20.60;42.50
11454;DHT22;5783;55.174;61.310;2023-05-13T15:59:01;20.60;42.60
11454;DHT22;5783;55.174;61.310;2023-05-13T16:01:30;20.60;42.60
11454;DHT22;5783;55.174;61.310;2023-05-13T16:03:59;20.60;42.60
11454;DHT22;5783;55.174;61.310;2023-05-13T16:06:29;20.60;42.60
11454;DHT22;5783;55.174;61.310;2023-05-13T16:08:58;20.50;42.50
11454;DHT22;5783;55.174;61.310;2023-05-13T16:11:28;20.50;42.50
11454;DHT22;5783;55.174;61.310;2023-05-13T16:13:57;20.50;42.70
11454;DHT22;5783;55.174;61.310;2023-05-13T16:16:26;20.50;42.70
11454;DHT22;5783;55.174;61.310;2023-05-13T16:18:55;20.50;42.80